WEATHER DATA

TODAY
Time Temp. Dewp. Hum. Bar. 1h Prec. 24h Prec.
00:00 -0.9 -2 91 1019.6 0.0000 0.0000
00:09 -0.9 -2 91 1019.5 0.0000 0.0000
00:20 -1 -2.3 90 1019.5 0.0000 0.0000
00:30 -1 -2.1 91 1019.5 0.0000 0.0000
00:40 -1 -2.1 91 1019.5 0.0000 0.0000
00:50 -1 -2.1 91 1019.5 0.0000 0.0000
01:00 -1.1 -2.2 91 1019.5 0.0000 0.0000
01:10 -1.1 -2.2 91 1019.4 0.0000 0.0000
01:20 -1.1 -2.2 91 1019.2 0.0000 0.0000
01:30 -1.1 -2.1 92 1019.3 0.0000 0.0000
01:40 -1.1 -2.1 92 1019.3 0.0000 0.0000
01:53 -1.1 -2.1 92 1019.2 0.0000 0.0000
02:03 -1.2 -2.2 92 1019.2 0.0000 0.0000
02:13 -1.3 -2.3 92 1019.2 0.0000 0.0000
02:23 -1.3 -2.3 92 1019.3 0.0000 0.0000
02:33 -1.3 -2.3 92 1019.4 0.0000 0.0000
02:43 -1.4 -2.4 92 1019.5 0.0000 0.0000
02:54 -1.5 -2.5 92 1019.4 0.0000 0.0000
03:03 -1.6 -2.6 92 1019.1 0.0000 0.0000
03:13 -1.7 -2.7 92 1019.1 0.0000 0.0000
03:23 -1.7 -2.7 92 1018.8 0.0000 0.0000
03:34 -1.7 -2.7 92 1018.9 0.0000 0.0000
03:43 -1.7 -2.6 93 1018.9 0.0000 0.0000
03:53 -1.7 -2.6 93 1018.9 0.0000 0.0000
04:04 -1.7 -2.6 93 1019 0.0000 0.0000
04:14 -1.7 -2.6 93 1019 0.0000 0.0000
04:23 -1.6 -2.5 93 1019.1 0.0000 0.0000
04:34 -1.6 -2.5 93 1019 0.0000 0.0000
04:44 -1.6 -2.5 93 1018.8 0.0000 0.0000
04:54 -1.7 -2.6 93 1018.8 0.0000 0.0000
05:03 -1.7 -2.6 93 1018.7 0.0000 0.0000
05:14 -1.7 -2.6 93 1018.6 0.0000 0.0000
05:18 -1.7 -2.6 93 1018.6 0.0000 0.0000
05:28 -1.8 -2.7 93 1018.5 0.0000 0.0000
05:38 -1.8 -2.7 93 1018.4 0.0000 0.0000
05:48 -1.9 -2.6 94 1018.4 0.0000 0.0000
05:58 -1.9 -2.6 94 1018.2 0.0000 0.0000
06:08 -1.9 -2.6 94 1018.3 0.0000 0.0000
06:19 -1.9 -2.6 94 1018.3 0.0000 0.0000
06:28 -2 -2.7 94 1018.3 0.0000 0.0000
06:38 -2 -2.7 94 1018.1 0.0000 0.0000
06:49 -2.1 -2.8 94 1018 0.0000 0.0000
06:59 -2.1 -2.8 94 1018 0.0000 0.0000
07:08 -2.1 -2.8 94 1018.1 0.0000 0.0000
07:18 -2.2 -2.9 94 1018.2 0.0000 0.0000
07:29 -2.2 -2.9 94 1018.1 0.0000 0.0000
07:39 -2.3 -3 94 1018.1 0.0000 0.0000
07:48 -2.4 -3.1 94 1018.1 0.0000 0.0000
07:59 -2.5 -3.2 94 1018 0.0000 0.0000
08:09 -2.6 -3.3 94 1017.9 0.0000 0.0000
08:19 -2.7 -3.3 95 1017.9 0.0000 0.0000
08:29 -2.6 -3.2 95 1017.9 0.0000 0.0000
08:39 -2.6 -3.2 95 1018 0.0000 0.0000
08:49 -2.6 -3.2 95 1018 0.0000 0.0000
08:59 -2.6 -3.2 95 1018 0.0000 0.0000
09:09 -2.6 -3.2 95 1018 0.0000 0.0000
09:19 -2.4 -3 95 1018 0.0000 0.0000
09:29 -2.2 -2.8 95 1018 0.0000 0.0000
09:39 -1.9 -2.5 95 1018 0.0000 0.0000
09:49 -1.7 -2.3 95 1018 0.0000 0.0000
09:59 -1.4 -2 95 1018 0.0000 0.0000
10:09 -1.2 -1.8 95 1018 0.0000 0.0000
10:20 -0.9 -1.5 95 1018 0.0000 0.0000
10:29 -0.6 -1.2 95 1018 0.0000 0.0000
10:39 -0.4 -1.1 94 1018 0.0000 0.0000
10:50 -0.2 -0.9 94 1017.9 0.0000 0.0000
11:00 0 -0.7 94 1018 0.0000 0.0000
11:09 0.2 -0.7 93 1018 0.0000 0.0000
11:19 0.4 -0.7 92 1018 0.0000 0.0000
11:30 0.6 -0.5 92 1017.9 0.0000 0.0000
11:40 0.8 -0.4 91 1017.9 0.0000 0.0000
11:49 0.9 -0.5 90 1017.7 0.0000 0.0000
12:00 1.1 -0.3 90 1017.5 0.0000 0.0000

DAY STATISTIC

2019-01-18
TEMPERATURE
AVERAGE
-1.4
HIGH
1.1
12:00
LOW
-2.7
08:19
PRESSURE
AVERAGE
1018.5
HIGH
1019.6
00:00
LOW
1017.5
12:00
DEWPOINT
AVERAGE
-2.3
HIGH
-0.3
12:00
LOW
-3.3
08:09
HUMIDITY
AVERAGE
93
HIGH
95
08:19
LOW
90
00:20
PRECIPITATION
RAIN HOUR
0.0
RAIN DAY
0.0
TEMPERATURE (°C)
LOW
-2.7
HIGH
1.1
AVERAGE
-1.4
PRESSURE (hpa)
LOW
1017.5
HIGH
1019.6
AVERAGE
1018.5
DEVICE